Time;durP1;ratioP1;P1;durP2;ratioP2;P2;SDS_P1;SDS_P2;PMS_P1;PMS_P2;Temp;Humidity;BMP_temperature;BMP_pressure;BME280_temperature;BME280_humidity;BME280_pressure;Samples;Min_cycle;Max_cycle;Signal;HPM_P1;HPM_P2
2021/03/13 00:01:25;;;;;;;1.25;0.47;;;5.70;99.90;;;;;;5022984;28;20037;-70
2021/03/13 00:03:50;;;;;;;0.93;0.47;;;5.70;99.90;;;;;;5029573;28;20049;-70
2021/03/13 00:06:18;;;;;;;0.75;0.50;;;5.70;99.90;;;;;;5037179;28;20029;-71
2021/03/13 00:08:43;;;;;;;1.05;0.50;;;5.80;99.90;;;;;;5042068;28;20018;-71
2021/03/13 00:11:10;;;;;;;1.70;0.45;;;5.80;99.90;;;;;;5023170;28;20062;-71
2021/03/13 00:13:36;;;;;;;0.95;0.68;;;5.80;99.90;;;;;;5022654;28;20084;-72
2021/03/13 00:16:04;;;;;;;1.58;0.68;;;5.80;99.90;;;;;;5014875;28;20072;-72
2021/03/13 00:18:30;;;;;;;1.15;0.60;;;5.90;99.90;;;;;;5018419;28;20401;-71
2021/03/13 00:20:56;;;;;;;3.08;0.55;;;6.00;99.90;;;;;;5014685;28;20091;-71
2021/03/13 00:23:21;;;;;;;3.30;0.60;;;6.10;99.90;;;;;;5026381;28;20034;-71
2021/03/13 00:25:47;;;;;;;1.20;0.80;;;6.10;99.90;;;;;;5021267;28;20034;-71
2021/03/13 00:28:13;;;;;;;2.80;0.60;;;6.20;99.90;;;;;;5020371;28;20074;-71
2021/03/13 00:30:45;;;;;;;2.92;0.60;;;6.10;99.90;;;;;;5022182;28;20108;-69
2021/03/13 00:33:15;;;;;;;2.22;1.77;;;6.10;99.90;;;;;;5022302;28;20038;-70
2021/03/13 00:35:42;;;;;;;1.00;0.55;;;6.00;99.90;;;;;;5013061;28;20026;-69
2021/03/13 00:38:09;;;;;;;0.45;0.32;;;6.10;99.90;;;;;;5013272;28;20498;-70
2021/03/13 00:40:36;;;;;;;0.98;0.50;;;6.00;99.90;;;;;;5013341;28;20065;-69
2021/03/13 00:43:03;;;;;;;1.23;0.55;;;6.00;99.90;;;;;;5012343;28;20032;-69
2021/03/13 00:45:29;;;;;;;1.65;0.80;;;6.00;99.90;;;;;;5013724;28;20486;-70
2021/03/13 00:47:57;;;;;;;1.63;0.80;;;6.00;99.90;;;;;;5016516;28;20033;-68
2021/03/13 00:50:24;;;;;;;1.65;0.68;;;6.00;99.90;;;;;;5015521;28;20030;-69
2021/03/13 00:52:50;;;;;;;0.95;0.63;;;5.90;99.90;;;;;;5018932;28;20096;-69
2021/03/13 00:55:17;;;;;;;2.83;0.65;;;6.00;99.90;;;;;;5016400;28;20022;-70
2021/03/13 00:57:43;;;;;;;0.80;0.50;;;6.00;99.90;;;;;;5021537;28;20052;-70
2021/03/13 01:00:11;;;;;;;0.43;0.40;;;6.10;99.90;;;;;;5020370;28;20072;-70
2021/03/13 01:02:37;;;;;;;0.32;0.30;;;6.20;99.90;;;;;;5012609;28;20022;-68
2021/03/13 01:05:05;;;;;;;1.10;0.38;;;6.30;99.90;;;;;;5014310;28;20113;-69
2021/03/13 01:07:32;;;;;;;4.03;0.80;;;6.40;99.90;;;;;;5030382;28;20018;-68
2021/03/13 01:09:57;;;;;;;0.60;0.47;;;6.40;99.90;;;;;;5017132;28;20037;-69
2021/03/13 01:12:23;;;;;;;0.57;0.50;;;6.40;99.90;;;;;;5025216;28;20034;-70
2021/03/13 01:14:48;;;;;;;0.93;0.40;;;6.40;99.90;;;;;;5028799;28;20026;-68
2021/03/13 01:17:14;;;;;;;0.30;0.30;;;6.30;99.90;;;;;;5029390;28;20030;-70
2021/03/13 01:19:40;;;;;;;1.52;0.40;;;6.20;99.90;;;;;;5025495;28;20396;-69
2021/03/13 01:22:05;;;;;;;1.52;0.60;;;6.10;99.90;;;;;;5016517;28;20022;-69
2021/03/13 01:24:31;;;;;;;0.57;0.40;;;6.10;99.90;;;;;;5016423;28;20026;-69
2021/03/13 01:26:56;;;;;;;0.93;0.40;;;6.10;99.90;;;;;;5016504;28;20026;-70
2021/03/13 01:29:22;;;;;;;0.45;0.30;;;6.00;99.90;;;;;;5016245;28;20037;-70
2021/03/13 01:31:48;;;;;;;1.35;1.08;;;6.10;99.90;;;;;;5017316;28;20478;-69
2021/03/13 01:34:13;;;;;;;0.50;0.30;;;6.10;99.90;;;;;;5016924;28;20033;-69
2021/03/13 01:36:39;;;;;;;0.85;0.60;;;6.10;99.90;;;;;;5016061;28;20068;-69
2021/03/13 01:39:05;;;;;;;0.50;0.30;;;6.00;99.90;;;;;;5012379;28;20099;-70
2021/03/13 01:41:31;;;;;;;1.20;0.35;;;6.00;99.90;;;;;;5013913;28;20038;-69
2021/03/13 01:43:56;;;;;;;0.98;0.55;;;5.90;99.90;;;;;;5018681;28;20037;-68
2021/03/13 01:46:22;;;;;;;0.90;0.50;;;5.90;99.90;;;;;;5034177;28;20034;-70
2021/03/13 01:48:50;;;;;;;0.57;0.30;;;5.80;99.90;;;;;;5018120;28;20041;-70
2021/03/13 01:51:16;;;;;;;1.25;0.35;;;5.70;99.90;;;;;;5023930;28;20026;-68
2021/03/13 01:53:42;;;;;;;0.85;0.50;;;5.70;99.90;;;;;;5018433;28;20113;-69
2021/03/13 01:56:07;;;;;;;0.70;0.50;;;5.60;99.90;;;;;;5020443;28;20038;-70
2021/03/13 01:58:33;;;;;;;0.95;0.40;;;5.60;99.90;;;;;;5025778;28;20100;-70
2021/03/13 02:00:59;;;;;;;0.20;0.20;;;5.50;99.90;;;;;;5025338;28;20089;-70
2021/03/13 02:03:25;;;;;;;0.95;0.40;;;5.50;99.90;;;;;;5028514;28;20030;-69
2021/03/13 02:05:51;;;;;;;1.08;0.73;;;5.60;99.90;;;;;;5027795;28;20091;-68
2021/03/13 02:08:44;;;;;;;0.73;0.50;;;5.60;99.90;;;;;;5024475;28;20045;-69
2021/03/13 02:11:27;;;;;;;1.90;0.50;;;5.60;99.90;;;;;;5023778;28;20091;-70
2021/03/13 02:14:06;;;;;;;0.77;0.30;;;5.50;1.00;;;;;;5023877;28;20053;-69
2021/03/13 02:16:41;;;;;;;0.98;0.50;;;5.60;99.90;;;;;;5016230;28;20030;-70
2021/03/13 02:19:16;;;;;;;0.65;0.50;;;5.60;1.00;;;;;;5013315;28;20079;-69
2021/03/13 02:21:52;;;;;;;1.08;0.50;;;5.60;1.00;;;;;;5013408;28;20444;-69
2021/03/13 02:24:26;;;;;;;0.90;0.70;;;5.50;1.00;;;;;;5033926;28;20072;-69
2021/03/13 02:27:01;;;;;;;2.05;0.73;;;5.50;1.00;;;;;;5007632;28;20022;-69
2021/03/13 02:29:51;;;;;;;2.00;0.93;;;5.60;1.00;;;;;;5009426;28;20121;-70
2021/03/13 02:32:23;;;;;;;2.75;0.90;;;5.60;1.00;;;;;;5016215;28;20445;-70
2021/03/13 02:34:56;;;;;;;2.45;0.50;;;5.60;1.00;;;;;;5015858;28;20029;-70
2021/03/13 02:37:26;;;;;;;1.25;0.70;;;5.50;1.00;;;;;;5013744;28;20504;-68
2021/03/13 02:39:54;;;;;;;2.70;0.90;;;5.50;1.00;;;;;;5014634;28;20042;-68
2021/03/13 02:42:22;;;;;;;0.98;0.50;;;5.50;1.00;;;;;;5008703;28;20026;-69
2021/03/13 02:44:49;;;;;;;2.42;0.60;;;5.50;1.00;;;;;;5013101;28;20033;-70
2021/03/13 02:47:15;;;;;;;0.88;0.70;;;5.50;1.00;;;;;;5014598;28;20026;-68
2021/03/13 02:49:46;;;;;;;1.52;0.82;;;5.60;1.00;;;;;;5006724;28;20068;-69
2021/03/13 02:52:13;;;;;;;2.85;0.55;;;5.60;1.00;;;;;;5014085;28;20556;-69
2021/03/13 02:54:43;;;;;;;1.92;0.70;;;5.70;1.00;;;;;;5014822;28;20397;-70
2021/03/13 02:57:13;;;;;;;3.15;0.82;;;5.70;1.00;;;;;;5014375;28;20109;-69
2021/03/13 02:59:40;;;;;;;4.68;0.88;;;5.70;1.00;;;;;;5009416;28;20045;-69
2021/03/13 03:02:07;;;;;;;1.98;0.82;;;5.70;99.90;;;;;;5010794;28;20084;-69
2021/03/13 03:04:36;;;;;;;3.20;0.60;;;5.70;1.00;;;;;;5013164;28;20502;-68
2021/03/13 03:07:02;;;;;;;1.23;0.80;;;5.70;99.90;;;;;;5012993;28;20517;-69
2021/03/13 03:09:29;;;;;;;2.72;0.80;;;5.70;99.90;;;;;;5013451;28;20034;-70
2021/03/13 03:11:56;;;;;;;2.53;0.90;;;5.80;99.90;;;;;;5013155;28;20032;-69
2021/03/13 03:14:23;;;;;;;4.03;1.20;;;5.80;99.90;;;;;;5008629;28;20397;-69
2021/03/13 03:16:52;;;;;;;3.58;1.83;;;5.90;99.90;;;;;;5013053;28;20033;-69
2021/03/13 03:19:20;;;;;;;1.65;0.65;;;5.90;99.90;;;;;;5012968;28;20057;-69
2021/03/13 03:21:46;;;;;;;2.45;1.10;;;5.90;99.90;;;;;;5013426;28;20018;-69
2021/03/13 03:24:12;;;;;;;2.38;1.10;;;5.90;99.90;;;;;;5012990;28;20535;-69
2021/03/13 03:26:39;;;;;;;1.27;0.70;;;5.90;99.90;;;;;;5011029;28;20049;-70
2021/03/13 03:29:04;;;;;;;3.90;1.17;;;6.00;99.90;;;;;;5012141;28;20026;-69
2021/03/13 03:31:30;;;;;;;2.78;0.82;;;6.00;99.90;;;;;;5011728;28;20045;-69
2021/03/13 03:33:56;;;;;;;2.45;1.38;;;6.00;99.90;;;;;;4995466;28;20025;-68
2021/03/13 03:36:22;;;;;;;2.97;0.80;;;6.00;99.90;;;;;;5013138;28;20069;-69
2021/03/13 03:38:48;;;;;;;5.70;0.70;;;6.00;99.90;;;;;;5014664;28;20034;-69
2021/03/13 03:41:15;;;;;;;4.40;0.80;;;6.10;99.90;;;;;;4993995;28;20033;-70
2021/03/13 03:43:44;;;;;;;1.75;0.95;;;6.10;99.90;;;;;;5015966;28;20052;-70
2021/03/13 03:46:11;;;;;;;5.05;0.80;;;6.20;99.90;;;;;;5012512;28;20026;-70
2021/03/13 03:48:37;;;;;;;1.55;0.63;;;6.20;99.90;;;;;;5021197;28;20037;-69
2021/03/13 03:51:07;;;;;;;1.90;0.73;;;6.30;99.90;;;;;;5023005;28;20029;-69
2021/03/13 03:53:36;;;;;;;3.20;1.10;;;6.30;99.90;;;;;;5020458;28;20121;-70
2021/03/13 03:56:03;;;;;;;3.90;1.10;;;6.30;99.90;;;;;;5015193;28;20056;-70
2021/03/13 03:58:34;;;;;;;3.90;0.80;;;6.40;99.90;;;;;;5004298;28;20120;-68
2021/03/13 04:01:01;;;;;;;1.88;0.68;;;6.40;99.90;;;;;;5013431;28;20030;-70
2021/03/13 04:03:28;;;;;;;3.80;0.65;;;6.50;99.90;;;;;;5019715;28;20095;-70
2021/03/13 04:05:55;;;;;;;6.18;1.55;;;6.50;99.90;;;;;;5023887;28;20033;-69
2021/03/13 04:08:21;;;;;;;0.88;0.60;;;6.50;99.90;;;;;;5014883;28;20028;-70
2021/03/13 04:10:50;;;;;;;1.25;0.60;;;6.60;99.90;;;;;;5012924;28;20060;-69
2021/03/13 04:13:18;;;;;;;3.15;1.15;;;6.70;99.90;;;;;;5022354;28;20026;-69
2021/03/13 04:15:45;;;;;;;2.25;0.57;;;6.70;99.90;;;;;;5025290;28;20026;-70
2021/03/13 04:18:11;;;;;;;4.55;1.00;;;6.70;99.90;;;;;;5012399;28;20045;-70
2021/03/13 04:20:39;;;;;;;4.93;0.98;;;6.70;99.90;;;;;;5012315;28;20439;-70
2021/03/13 04:23:08;;;;;;;3.80;0.63;;;6.80;99.90;;;;;;5012050;28;20512;-70
2021/03/13 04:25:36;;;;;;;3.15;1.00;;;6.80;99.90;;;;;;5008113;28;20018;-70
2021/03/13 04:28:02;;;;;;;1.38;0.80;;;6.90;99.90;;;;;;5012720;28;20109;-69
2021/03/13 04:30:28;;;;;;;2.53;0.75;;;6.90;99.90;;;;;;5012288;28;20517;-70
2021/03/13 04:32:57;;;;;;;2.42;0.80;;;7.00;99.90;;;;;;5012350;28;20117;-70
2021/03/13 04:35:24;;;;;;;1.27;0.50;;;7.00;99.90;;;;;;5013525;28;20092;-69
2021/03/13 04:37:50;;;;;;;4.32;1.15;;;7.00;99.90;;;;;;5006471;28;20556;-68
2021/03/13 04:40:17;;;;;;;4.53;0.80;;;7.00;99.90;;;;;;5011552;28;20034;-69
2021/03/13 04:42:44;;;;;;;3.13;1.20;;;7.00;99.90;;;;;;5012191;28;20512;-69
2021/03/13 04:45:12;;;;;;;1.60;0.68;;;7.00;99.90;;;;;;5011827;28;20038;-70
2021/03/13 04:47:41;;;;;;;1.13;0.60;;;7.00;99.90;;;;;;5012730;28;20029;-69
2021/03/13 04:50:07;;;;;;;5.35;0.95;;;7.10;99.90;;;;;;5012119;28;20034;-68
2021/03/13 04:52:33;;;;;;;3.17;0.60;;;7.10;99.90;;;;;;5001211;28;20022;-68
2021/03/13 04:54:58;;;;;;;2.80;0.47;;;7.10;99.90;;;;;;5011956;28;20034;-69
2021/03/13 04:57:24;;;;;;;1.00;0.47;;;7.10;99.90;;;;;;5011695;28;20054;-68
2021/03/13 04:59:50;;;;;;;1.40;0.55;;;7.00;99.90;;;;;;5010908;28;20038;-69
2021/03/13 05:02:16;;;;;;;2.72;1.02;;;6.90;99.90;;;;;;5011585;28;20121;-69
2021/03/13 05:04:42;;;;;;;2.97;0.40;;;6.90;99.90;;;;;;5011846;28;20466;-68
2021/03/13 05:07:07;;;;;;;2.40;0.85;;;7.10;99.90;;;;;;5010020;28;20057;-69
2021/03/13 05:09:33;;;;;;;2.08;0.50;;;7.00;99.90;;;;;;5011522;28;20026;-69
2021/03/13 05:12:00;;;;;;;1.45;0.70;;;7.00;99.90;;;;;;5011537;28;20022;-69
2021/03/13 05:14:25;;;;;;;1.83;0.60;;;7.10;99.90;;;;;;5010048;28;20034;-69
2021/03/13 05:16:51;;;;;;;1.65;0.43;;;7.10;99.90;;;;;;5011873;28;20482;-69
2021/03/13 05:19:16;;;;;;;1.95;0.50;;;7.20;99.90;;;;;;5009027;28;20042;-69
2021/03/13 05:21:42;;;;;;;0.73;0.40;;;7.20;99.90;;;;;;5010874;28;20070;-69
2021/03/13 05:24:08;;;;;;;1.85;0.52;;;7.20;99.90;;;;;;5013180;28;20025;-70
2021/03/13 05:26:33;;;;;;;1.92;0.50;;;7.20;99.90;;;;;;5016329;28;20101;-70
2021/03/13 05:28:59;;;;;;;2.10;0.65;;;7.20;99.90;;;;;;5016261;28;20026;-70
2021/03/13 05:31:24;;;;;;;1.45;0.60;;;7.20;99.90;;;;;;5014897;28;20025;-69
2021/03/13 05:33:50;;;;;;;4.10;0.70;;;7.40;99.90;;;;;;5013038;28;20036;-70
2021/03/13 05:36:16;;;;;;;0.98;0.60;;;7.40;99.90;;;;;;5012387;28;20044;-69
2021/03/13 05:38:41;;;;;;;2.03;0.50;;;7.60;99.90;;;;;;5010965;28;20026;-69
2021/03/13 05:41:07;;;;;;;1.52;0.47;;;7.50;99.90;;;;;;5010914;28;20113;-69
2021/03/13 05:43:34;;;;;;;1.55;0.60;;;7.50;99.90;;;;;;5012111;28;20057;-70
2021/03/13 05:46:02;;;;;;;3.50;0.60;;;7.60;99.90;;;;;;5011562;28;20428;-67
2021/03/13 05:48:30;;;;;;;2.45;0.80;;;7.70;99.90;;;;;;5012227;28;20458;-69
2021/03/13 05:50:58;;;;;;;2.40;0.75;;;7.70;99.90;;;;;;5011996;28;20018;-70
2021/03/13 05:53:24;;;;;;;3.05;0.43;;;7.80;99.90;;;;;;5018170;28;20084;-71
2021/03/13 05:55:53;;;;;;;1.88;0.50;;;7.80;99.90;;;;;;5022395;28;20038;-69
2021/03/13 05:58:22;;;;;;;1.33;0.50;;;7.80;99.90;;;;;;5026783;28;20026;-70
2021/03/13 06:00:49;;;;;;;3.00;0.70;;;7.80;99.90;;;;;;5024747;28;20382;-70
2021/03/13 06:03:15;;;;;;;0.98;0.32;;;7.90;99.90;;;;;;5012113;28;20076;-68
2021/03/13 06:05:44;;;;;;;1.00;0.40;;;7.90;99.90;;;;;;5015276;28;20034;-70
2021/03/13 06:08:11;;;;;;;1.38;0.60;;;8.00;99.90;;;;;;5015014;28;20080;-69
2021/03/13 06:10:36;;;;;;;4.57;1.10;;;8.00;99.90;;;;;;5014130;28;20022;-70
2021/03/13 06:13:02;;;;;;;1.83;0.60;;;7.90;99.90;;;;;;5014374;28;20040;-69
2021/03/13 06:15:29;;;;;;;0.98;0.30;;;7.90;99.90;;;;;;5030768;28;20033;-69
2021/03/13 06:17:59;;;;;;;1.42;0.50;;;7.90;99.90;;;;;;5012488;28;20032;-69
2021/03/13 06:20:31;;;;;;;2.10;0.80;;;7.90;99.90;;;;;;5014942;28;20053;-70
2021/03/13 06:23:03;;;;;;;0.98;0.40;;;8.00;99.90;;;;;;5014911;28;20055;-70
2021/03/13 06:25:30;;;;;;;0.85;0.70;;;8.00;99.90;;;;;;5014743;28;20030;-70
2021/03/13 06:28:25;;;;;;;2.30;1.20;;;8.00;99.90;;;;;;5014939;28;20383;-70
2021/03/13 06:30:52;;;;;;;4.18;0.75;;;8.10;99.90;;;;;;5010290;28;20432;-70
2021/03/13 06:33:19;;;;;;;1.17;0.60;;;8.10;99.90;;;;;;5030302;28;20083;-69
2021/03/13 06:35:45;;;;;;;2.85;1.05;;;8.20;99.80;;;;;;5014841;28;20021;-70
2021/03/13 06:38:21;;;;;;;2.80;0.60;;;8.20;96.40;;;;;;5013862;28;20311;-69
2021/03/13 06:40:49;;;;;;;2.97;0.77;;;8.30;95.60;;;;;;5027931;28;20063;-70
2021/03/13 06:43:26;;;;;;;2.67;1.05;;;8.40;89.90;;;;;;5015798;28;20260;-69
2021/03/13 06:46:01;;;;;;;3.33;0.70;;;8.50;55.00;;;;;;5014396;28;20481;-70
2021/03/13 06:48:35;;;;;;;2.13;0.70;;;8.60;35.00;;;;;;5015052;28;20026;-69
2021/03/13 06:51:20;;;;;;;3.97;0.80;;;8.60;30.70;;;;;;5014674;28;20112;-69
2021/03/13 06:54:04;;;;;;;2.95;0.52;;;8.70;11.90;;;;;;5016536;28;20021;-69
2021/03/13 06:56:31;;;;;;;6.15;1.00;;;8.70;1.00;;;;;;5022070;28;20493;-69
2021/03/13 06:58:58;;;;;;;4.47;0.70;;;8.70;6.10;;;;;;5014679;28;20033;-69
2021/03/13 07:01:31;;;;;;;1.92;0.40;;;8.80;1.00;;;;;;5014401;28;20026;-69
2021/03/13 07:03:58;;;;;;;1.73;0.98;;;8.90;1.00;;;;;;5013071;28;20065;-70
2021/03/13 07:06:25;;;;;;;2.28;0.90;;;8.90;1.00;;;;;;5013685;28;20026;-71
2021/03/13 07:08:53;;;;;;;1.55;0.75;;;9.00;1.00;;;;;;5019469;28;20385;-69
2021/03/13 07:11:24;;;;;;;4.90;1.15;;;9.30;1.00;;;;;;5030137;28;20457;-70
2021/03/13 07:13:54;;;;;;;2.45;0.60;;;9.40;1.00;;;;;;5013234;28;20026;-69
2021/03/13 07:16:38;;;;;;;4.20;0.85;;;9.60;99.90;;;;;;5013738;28;20037;-70
2021/03/13 07:19:07;;;;;;;5.07;0.82;;;9.60;99.90;;;;;;5007054;28;20029;-69
2021/03/13 07:21:34;;;;;;;3.42;0.90;;;9.60;99.90;;;;;;5016728;28;20029;-69
2021/03/13 07:24:11;;;;;;;0.52;0.40;;;9.60;99.90;;;;;;5034000;28;20026;-69
2021/03/13 07:26:38;;;;;;;4.13;0.77;;;9.50;99.90;;;;;;5011855;28;20022;-70
2021/03/13 07:29:06;;;;;;;2.90;0.98;;;9.50;99.90;;;;;;5018777;28;20486;-71
2021/03/13 07:31:39;;;;;;;1.90;0.80;;;9.50;99.90;;;;;;5025734;28;20026;-70
2021/03/13 07:34:10;;;;;;;2.90;0.60;;;9.60;99.90;;;;;;5013237;28;20049;-71
2021/03/13 07:36:41;;;;;;;2.20;0.52;;;9.70;99.90;;;;;;5013396;28;20139;-70
2021/03/13 07:39:16;;;;;;;3.60;0.60;;;9.80;99.90;;;;;;5025012;28;20041;-70
2021/03/13 07:41:49;;;;;;;3.08;0.68;;;9.80;99.90;;;;;;5013461;28;20022;-69
2021/03/13 07:44:15;;;;;;;2.67;0.75;;;9.90;99.90;;;;;;5018723;28;20053;-70
2021/03/13 07:46:42;;;;;;;5.65;0.60;;;10.00;28.80;;;;;;5032285;28;20508;-71
2021/03/13 07:49:10;;;;;;;2.42;0.63;;;10.10;1.00;;;;;;5018405;28;20025;-69
2021/03/13 07:51:36;;;;;;;1.50;0.50;;;10.20;17.80;;;;;;5013594;28;20126;-70
2021/03/13 07:54:02;;;;;;;3.72;0.60;;;10.20;1.00;;;;;;5021722;28;20108;-70
2021/03/13 07:56:31;;;;;;;2.22;0.60;;;10.40;1.00;;;;;;5017442;28;20033;-70
2021/03/13 07:58:57;;;;;;;1.30;0.50;;;10.50;99.90;;;;;;5013608;28;20035;-70
2021/03/13 08:01:48;;;;;;;2.90;0.40;;;10.50;99.90;;;;;;5025178;28;20394;-70
2021/03/13 08:04:42;;;;;;;2.28;0.55;;;10.50;99.90;;;;;;5021688;28;20087;-70
2021/03/13 08:07:07;;;;;;;1.25;0.55;;;10.40;32.80;;;;;;5012812;28;20043;-70
2021/03/13 08:09:44;;;;;;;1.42;0.30;;;10.30;94.20;;;;;;5014223;28;20434;-69
2021/03/13 08:12:11;;;;;;;2.00;0.55;;;10.20;99.90;;;;;;5020562;28;20026;-71
2021/03/13 08:14:37;;;;;;;1.63;0.70;;;10.10;99.90;;;;;;5021630;28;20029;-70
2021/03/13 08:17:10;;;;;;;1.80;0.60;;;10.10;99.90;;;;;;5038927;28;20043;-70
2021/03/13 08:19:42;;;;;;;2.75;0.50;;;10.10;99.90;;;;;;5048903;28;20035;-70
2021/03/13 08:22:21;;;;;;;0.93;0.85;;;10.20;99.90;;;;;;5023781;28;20018;-68
2021/03/13 08:24:48;;;;;;;1.90;0.40;;;10.20;1.00;;;;;;5032484;28;20030;-70
2021/03/13 08:27:16;;;;;;;0.88;0.38;;;10.30;1.00;;;;;;5024402;28;20036;-70
2021/03/13 08:29:51;;;;;;;1.42;0.30;;;10.20;1.00;;;;;;5022880;28;20021;-70
2021/03/13 08:32:17;;;;;;;1.10;0.52;;;10.30;1.00;;;;;;5022194;28;20033;-70
2021/03/13 08:34:44;;;;;;;0.75;0.40;;;10.40;99.90;;;;;;5022084;28;20482;-71
2021/03/13 08:37:22;;;;;;;0.90;0.40;;;10.60;1.00;;;;;;5014723;28;20030;-69
2021/03/13 08:39:49;;;;;;;1.27;0.40;;;10.70;99.90;;;;;;5016081;28;20052;-70
2021/03/13 08:42:31;;;;;;;2.15;0.40;;;10.70;99.90;;;;;;5018974;28;20038;-70
2021/03/13 08:45:14;;;;;;;3.97;0.50;;;10.80;99.90;;;;;;5024640;28;20026;-71
2021/03/13 08:47:48;;;;;;;0.30;0.30;;;11.00;99.90;;;;;;5027911;28;20032;-70
2021/03/13 08:50:43;;;;;;;1.25;0.50;;;11.00;40.40;;;;;;5031602;28;20042;-70
2021/03/13 08:53:32;;;;;;;3.75;0.50;;;11.00;99.90;;;;;;5028651;28;20056;-70
2021/03/13 08:55:58;;;;;;;6.32;1.20;;;11.10;1.00;;;;;;5011962;28;20030;-70
2021/03/13 08:58:44;;;;;;;1.67;0.40;;;11.10;1.00;;;;;;5027741;28;20026;-71
2021/03/13 09:01:20;;;;;;;1.77;0.50;;;11.10;1.00;;;;;;5016811;28;20030;-69
2021/03/13 09:03:52;;;;;;;4.05;0.52;;;11.10;99.90;;;;;;5012128;28;20517;-71
2021/03/13 09:06:19;;;;;;;1.27;0.32;;;11.00;1.00;;;;;;5013498;28;20057;-70
2021/03/13 09:08:45;;;;;;;1.80;0.60;;;11.00;99.90;;;;;;5016831;28;20017;-72
2021/03/13 09:11:11;;;;;;;1.63;0.50;;;11.10;99.90;;;;;;5019970;28;20025;-70
2021/03/13 09:13:36;;;;;;;1.65;0.57;;;11.20;49.00;;;;;;5013930;28;20041;-71
2021/03/13 09:16:17;;;;;;;1.85;0.68;;;11.30;99.90;;;;;;5015297;28;20036;-71
2021/03/13 09:18:50;;;;;;;4.03;0.73;;;11.20;99.90;;;;;;5015062;28;20022;-71
2021/03/13 09:21:49;;;;;;;0.85;0.40;;;11.10;1.00;;;;;;5014472;28;20113;-70
2021/03/13 09:24:19;;;;;;;1.85;0.43;;;11.10;99.90;;;;;;5022499;28;20033;-70
2021/03/13 09:26:49;;;;;;;1.27;0.47;;;11.20;1.00;;;;;;5020497;28;20109;-70
2021/03/13 09:29:15;;;;;;;2.20;0.43;;;11.30;1.00;;;;;;5023799;28;20486;-71
2021/03/13 09:31:42;;;;;;;1.65;0.50;;;11.50;1.00;;;;;;5023634;28;20039;-70
2021/03/13 09:34:15;;;;;;;0.80;0.60;;;11.50;1.00;;;;;;5023992;28;20102;-71
2021/03/13 09:36:41;;;;;;;0.70;0.40;;;11.50;1.00;;;;;;5025425;28;20025;-71
2021/03/13 09:39:07;;;;;;;1.95;0.47;;;11.60;99.90;;;;;;5022052;28;20060;-71
2021/03/13 09:41:33;;;;;;;1.55;0.43;;;11.60;99.90;;;;;;5027562;28;20022;-71
2021/03/13 09:43:58;;;;;;;1.77;0.38;;;11.60;1.00;;;;;;5023531;28;20041;-71
2021/03/13 09:46:24;;;;;;;1.92;0.55;;;11.80;99.90;;;;;;5020115;28;20489;-71
2021/03/13 09:48:50;;;;;;;2.03;0.73;;;11.70;99.90;;;;;;5017891;28;20026;-70
2021/03/13 09:51:17;;;;;;;0.70;0.40;;;11.80;99.90;;;;;;5018759;28;20505;-70
2021/03/13 09:53:43;;;;;;;2.20;0.40;;;11.80;99.90;;;;;;5017486;28;20033;-71
2021/03/13 09:56:09;;;;;;;1.25;0.40;;;11.90;99.90;;;;;;5017656;28;20033;-71
2021/03/13 09:58:34;;;;;;;0.47;0.40;;;12.00;99.90;;;;;;5020540;28;20397;-70
2021/03/13 10:01:00;;;;;;;1.33;0.52;;;11.90;99.90;;;;;;5016371;28;20022;-71
2021/03/13 10:03:26;;;;;;;1.38;0.40;;;12.00;99.90;;;;;;5016773;28;20105;-71
2021/03/13 10:05:53;;;;;;;2.38;0.35;;;12.00;99.90;;;;;;5017978;28;20049;-70
2021/03/13 10:08:19;;;;;;;2.58;0.43;;;12.00;99.90;;;;;;5017881;28;20022;-70
2021/03/13 10:10:49;;;;;;;1.98;1.08;;;12.00;99.90;;;;;;5017820;28;20356;-70
2021/03/13 10:13:16;;;;;;;1.02;0.75;;;11.70;99.90;;;;;;5029021;28;20060;-70
2021/03/13 10:15:43;;;;;;;1.17;0.40;;;11.60;1.00;;;;;;5034079;28;20106;-70
2021/03/13 10:18:16;;;;;;;1.17;0.40;;;11.60;39.70;;;;;;5028502;28;20084;-69
2021/03/13 10:20:48;;;;;;;1.65;0.40;;;11.60;1.00;;;;;;5016377;28;20026;-71
2021/03/13 10:23:19;;;;;;;0.95;0.40;;;11.60;99.90;;;;;;5015297;28;20038;-71
2021/03/13 10:25:59;;;;;;;0.80;0.52;;;11.50;63.80;;;;;;5016457;28;20030;-70
2021/03/13 10:28:31;;;;;;;1.85;0.47;;;11.50;96.50;;;;;;5017343;28;20037;-70
2021/03/13 10:31:08;;;;;;;3.63;0.57;;;11.60;99.90;;;;;;5017850;28;20037;-70
2021/03/13 10:33:41;;;;;;;1.52;0.60;;;11.60;22.80;;;;;;5023238;28;20037;-71
2021/03/13 10:36:07;;;;;;;0.60;0.38;;;11.70;96.90;;;;;;5024303;28;20033;-71
2021/03/13 10:38:39;;;;;;;1.30;0.45;;;11.70;1.00;;;;;;5040390;28;20032;-70
2021/03/13 10:41:09;;;;;;;2.20;0.82;;;11.70;1.00;;;;;;5037013;28;20033;-70
2021/03/13 10:43:45;;;;;;;1.33;0.77;;;11.60;1.00;;;;;;5025414;28;20037;-71
2021/03/13 10:46:19;;;;;;;0.90;0.30;;;11.60;99.90;;;;;;5030326;28;20026;-71
2021/03/13 10:48:51;;;;;;;2.72;0.30;;;11.50;99.90;;;;;;5018142;28;20068;-70
2021/03/13 10:51:28;;;;;;;0.63;0.30;;;11.60;99.90;;;;;;5020018;28;20061;-70
2021/03/13 10:53:55;;;;;;;1.25;0.40;;;11.60;99.90;;;;;;5016981;28;20033;-70
2021/03/13 10:56:21;;;;;;;1.08;0.40;;;11.70;99.90;;;;;;5036690;23;20046;-70
2021/03/13 10:58:57;;;;;;;2.80;0.50;;;11.60;99.90;;;;;;5004453;28;20034;-71
2021/03/13 11:01:23;;;;;;;1.05;0.30;;;11.70;95.10;;;;;;5002204;28;20030;-73
2021/03/13 11:03:50;;;;;;;1.10;0.40;;;11.70;1.00;;;;;;5002596;28;20117;-72
2021/03/13 11:06:51;;;;;;;3.45;0.40;;;11.60;1.00;;;;;;5004128;28;20089;-72
2021/03/13 11:09:17;;;;;;;0.70;0.40;;;11.70;1.00;;;;;;4983711;28;20046;-72
2021/03/13 11:11:42;;;;;;;1.67;0.50;;;11.80;1.00;;;;;;5004207;28;20037;-73
2021/03/13 11:14:09;;;;;;;0.70;0.40;;;11.80;1.00;;;;;;5010729;28;20030;-72
2021/03/13 11:16:35;;;;;;;1.73;0.40;;;11.90;99.90;;;;;;5005626;28;20105;-72
2021/03/13 11:19:01;;;;;;;0.40;0.30;;;11.90;99.90;;;;;;5004463;28;20026;-72
2021/03/13 11:21:27;;;;;;;1.58;0.85;;;12.00;93.00;;;;;;4996216;28;20034;-73
2021/03/13 11:23:53;;;;;;;0.40;0.40;;;11.90;65.50;;;;;;4995980;28;20034;-72
2021/03/13 11:26:20;;;;;;;0.80;0.70;;;11.90;4.40;;;;;;4996332;28;20073;-72
2021/03/13 11:28:47;;;;;;;2.42;0.43;;;11.90;68.10;;;;;;4996636;28;20019;-73
2021/03/13 11:31:13;;;;;;;3.50;0.38;;;11.90;43.50;;;;;;4997167;28;20089;-72
2021/03/13 11:33:39;;;;;;;7.97;0.52;;;12.00;61.50;;;;;;4999103;28;20081;-73
2021/03/13 11:36:06;;;;;;;0.77;0.55;;;12.00;1.00;;;;;;4984950;28;20030;-73
2021/03/13 11:38:33;;;;;;;1.88;0.38;;;12.20;1.00;;;;;;5002774;28;20026;-74
2021/03/13 11:41:02;;;;;;;0.70;0.40;;;12.20;1.00;;;;;;5007082;28;20659;-75
2021/03/13 11:43:27;;;;;;;1.17;0.50;;;12.10;1.00;;;;;;5007309;28;20147;-74
2021/03/13 11:45:53;;;;;;;0.70;0.35;;;12.30;1.00;;;;;;5011635;28;20029;-74
2021/03/13 11:48:19;;;;;;;0.20;0.20;;;12.20;1.00;;;;;;5015413;28;20030;-74
2021/03/13 11:50:45;;;;;;;1.05;0.40;;;12.30;1.00;;;;;;5010464;28;20041;-77
2021/03/13 11:53:11;;;;;;;1.23;0.40;;;12.30;1.00;;;;;;5018642;28;20052;-75
2021/03/13 11:55:37;;;;;;;0.73;0.50;;;12.30;1.00;;;;;;5018904;28;20029;-76
2021/03/13 11:58:03;;;;;;;0.95;0.50;;;12.50;1.00;;;;;;5027741;28;20493;-75
2021/03/13 12:00:29;;;;;;;1.00;0.30;;;12.30;1.00;;;;;;5026073;28;20023;-76
2021/03/13 12:02:54;;;;;;;2.30;0.38;;;12.30;1.00;;;;;;5016698;28;20021;-74
2021/03/13 12:05:20;;;;;;;0.77;0.40;;;12.30;1.00;;;;;;5015896;28;20042;-76
2021/03/13 12:07:45;;;;;;;0.57;0.28;;;12.10;1.00;;;;;;5014302;28;20030;-78
2021/03/13 12:10:12;;;;;;;3.55;0.50;;;12.10;75.40;;;;;;5010258;28;20093;-77
2021/03/13 12:12:38;;;;;;;1.17;0.50;;;12.10;99.90;;;;;;5013562;28;20026;-78
2021/03/13 12:15:06;;;;;;;6.35;0.40;;;12.10;99.90;;;;;;5024382;28;20021;-76
2021/03/13 12:17:31;;;;;;;2.15;0.30;;;12.10;99.90;;;;;;5009027;28;20030;-76
2021/03/13 12:19:57;;;;;;;1.15;0.30;;;12.10;1.00;;;;;;5011321;28;20041;-75
2021/03/13 12:22:23;;;;;;;1.65;0.32;;;12.10;99.90;;;;;;5021947;28;20378;-76
2021/03/13 12:24:50;;;;;;;2.15;0.40;;;12.20;99.90;;;;;;5006333;28;20034;-75
2021/03/13 12:27:16;;;;;;;0.40;0.30;;;12.10;99.90;;;;;;5005505;28;20620;-76
2021/03/13 12:29:42;;;;;;;0.30;0.22;;;12.00;99.90;;;;;;4996233;28;20034;-75
2021/03/13 12:32:10;;;;;;;0.30;0.30;;;12.20;39.60;;;;;;5013577;28;20053;-77
2021/03/13 12:34:36;;;;;;;4.68;0.73;;;12.30;99.90;;;;;;5018427;28;20022;-77
2021/03/13 12:37:05;;;;;;;0.85;0.30;;;12.30;99.90;;;;;;5009474;28;20030;-79
2021/03/13 12:39:39;;;;;;;0.65;0.30;;;12.30;99.90;;;;;;5008269;28;20027;-78
2021/03/13 12:42:05;;;;;;;0.30;0.30;;;12.10;99.90;;;;;;5013059;28;20354;-79
2021/03/13 12:44:31;;;;;;;1.00;0.40;;;12.20;99.90;;;;;;4992800;28;20027;-80
2021/03/13 12:46:57;;;;;;;1.20;0.32;;;12.30;99.90;;;;;;4988364;28;20023;-77
2021/03/13 12:49:25;;;;;;;1.20;0.50;;;12.50;99.20;;;;;;4980074;28;20034;-78
2021/03/13 12:51:54;;;;;;;0.50;0.40;;;12.50;99.90;;;;;;4981009;28;20022;-80
2021/03/13 12:54:19;;;;;;;0.77;0.40;;;12.40;1.00;;;;;;4988975;28;20458;-75
2021/03/13 12:56:45;;;;;;;4.47;1.42;;;12.10;1.00;;;;;;5008232;28;20049;-78
2021/03/13 12:59:10;;;;;;;0.57;0.30;;;11.80;99.90;;;;;;5012193;28;20479;-79
2021/03/13 13:01:36;;;;;;;0.88;0.38;;;11.50;99.90;;;;;;5016315;28;20509;-76
2021/03/13 13:04:02;;;;;;;1.65;0.40;;;11.30;1.00;;;;;;5006119;28;20081;-75